Pilger, Nebraska
Current Conditions -  °F | °C
As of 9:55 PM on Wednesday 17 Dec 2014 (Local Time) from KLCG Reporting Station
Overcast Overcast  
Wind Chill: 18°   Ceiling: 7500
Heat Index: 24°   Visibility: 10mi
Dew Point: 18°   Wind: 5mph
Humidity: 77%   Direction: 110°ESE
Pressure: 30.26"   Gusts: NA
Location:  42.01°N, 97.05°W
Report Text: KLCG 180355Z AUTO 11004KT 10SM SCT055 OVC075 M04/M08 A3026 RMK AO2 T10431077
Loading
Personal Weather Stations






























Interactive Weather Map New forecast layout! Learn more

10-Day Weather Forecast

Advertisements
Track Severe Weather on mobile